createdAt,value
2022-11-29T00:01:44.174Z,42.90
2022-11-29T00:04:13.037Z,41.05
2022-11-29T00:06:41.880Z,41.70
2022-11-29T00:09:13.149Z,40.10
2022-11-29T00:12:00.708Z,37.58
2022-11-29T00:14:29.912Z,37.17
2022-11-29T00:17:02.599Z,37.30
2022-11-29T00:19:31.621Z,37.78
2022-11-29T00:22:00.472Z,42.03
2022-11-29T00:24:31.676Z,39.53
2022-11-29T00:27:01.324Z,39.20
2022-11-29T00:29:31.140Z,36.72
2022-11-29T00:32:01.560Z,39.90
2022-11-29T00:34:30.540Z,39.72
2022-11-29T00:36:59.188Z,45.63
2022-11-29T00:39:28.169Z,38.65
2022-11-29T00:41:56.873Z,41.38
2022-11-29T00:44:25.710Z,34.92
2022-11-29T00:46:54.196Z,39.42
2022-11-29T00:49:24.223Z,39.88
2022-11-29T00:51:52.944Z,41.55
2022-11-29T00:54:21.676Z,38.00
2022-11-29T00:56:50.346Z,37.70
2022-11-29T00:59:19.172Z,37.53
2022-11-29T01:01:47.519Z,44.55
2022-11-29T01:04:16.325Z,36.30
2022-11-29T01:06:47.343Z,37.80
2022-11-29T01:09:16.054Z,37.72
2022-11-29T01:11:44.851Z,38.40
2022-11-29T01:14:14.567Z,47.38
2022-11-29T01:16:42.888Z,35.70
2022-11-29T01:19:11.793Z,41.95
2022-11-29T01:21:41.336Z,44.08
2022-11-29T01:24:11.551Z,35.55
2022-11-29T01:26:40.255Z,38.88
2022-11-29T01:29:09.041Z,40.50
2022-11-29T01:31:37.403Z,42.28
2022-11-29T01:34:07.672Z,39.75
2022-11-29T01:39:06.168Z,39.33
2022-11-29T01:41:37.949Z,36.80
2022-11-29T01:44:27.931Z,44.28
2022-11-29T01:46:56.961Z,42.05
2022-11-29T01:49:31.945Z,39.87
2022-11-29T01:52:02.601Z,45.35
2022-11-29T01:54:31.893Z,38.35
2022-11-29T01:57:04.659Z,28.90
2022-11-29T01:59:33.390Z,39.25
2022-11-29T02:02:06.319Z,40.55
2022-11-29T02:04:36.350Z,36.92
2022-11-29T02:07:05.370Z,40.90
2022-11-29T02:09:34.077Z,38.85
2022-11-29T02:12:18.911Z,43.80
2022-11-29T02:15:06.742Z,42.17
2022-11-29T02:17:42.535Z,40.45
2022-11-29T02:20:43.038Z,35.35
2022-11-29T02:26:00.028Z,42.45
2022-11-29T02:28:47.010Z,41.92
2022-11-29T02:31:52.998Z,45.90
2022-11-29T02:34:50.641Z,38.08
2022-11-29T02:37:44.210Z,50.10
2022-11-29T02:40:24.541Z,43.70
2022-11-29T02:45:40.035Z,43.33
2022-11-29T02:48:22.798Z,47.70
2022-11-29T02:50:56.432Z,40.03
2022-11-29T02:53:30.960Z,39.15
2022-11-29T02:56:07.323Z,44.78
2022-11-29T02:58:39.776Z,45.67
2022-11-29T03:01:12.289Z,43.00
2022-11-29T03:03:45.061Z,39.65
2022-11-29T03:06:23.547Z,43.95
2022-11-29T03:08:56.090Z,41.83
2022-11-29T03:11:30.420Z,40.70
2022-11-29T03:14:08.953Z,38.60
2022-11-29T03:16:43.501Z,43.53
2022-11-29T03:19:25.363Z,32.08
2022-11-29T03:22:03.263Z,42.63
2022-11-29T03:24:36.975Z,36.85
2022-11-29T03:27:10.828Z,38.30
2022-11-29T03:29:41.908Z,42.25
2022-11-29T03:32:14.056Z,49.45
2022-11-29T03:34:57.337Z,41.05
2022-11-29T03:37:33.330Z,39.30
2022-11-29T03:40:06.938Z,43.03
2022-11-29T03:42:38.977Z,41.53
2022-11-29T03:45:12.532Z,39.28
2022-11-29T03:47:46.560Z,40.90
2022-11-29T03:50:18.401Z,42.80
2022-11-29T03:52:51.291Z,43.50
2022-11-29T03:55:31.107Z,41.72
2022-11-29T03:58:10.958Z,37.83
2022-11-29T04:00:56.168Z,39.28
2022-11-29T04:03:58.839Z,36.97
2022-11-29T04:06:40.700Z,40.95
2022-11-29T04:09:45.180Z,41.53
2022-11-29T04:12:43.598Z,38.33
2022-11-29T04:15:31.695Z,40.35
2022-11-29T04:18:31.690Z,39.30
2022-11-29T04:21:33.445Z,33.03
2022-11-29T04:24:36.661Z,25.52
2022-11-29T04:27:32.278Z,44.47
2022-11-29T04:30:14.772Z,32.33
2022-11-29T04:33:16.534Z,39.83
2022-11-29T04:35:59.650Z,40.63
2022-11-29T04:38:48.822Z,42.45
2022-11-29T04:41:41.586Z,40.35
2022-11-29T04:44:29.022Z,40.15
2022-11-29T04:47:09.508Z,32.40
2022-11-29T04:50:01.953Z,36.40
2022-11-29T04:52:44.616Z,47.70
2022-11-29T04:55:34.622Z,41.03
2022-11-29T04:58:10.713Z,46.67
2022-11-29T05:00:46.121Z,34.15
2022-11-29T05:03:21.905Z,35.75
2022-11-29T05:05:55.147Z,38.72
2022-11-29T05:08:31.275Z,51.63
2022-11-29T05:11:05.666Z,49.90
2022-11-29T05:13:44.093Z,49.45
2022-11-29T05:16:34.873Z,55.63
2022-11-29T05:19:20.290Z,49.88
2022-11-29T05:21:54.255Z,60.53
2022-11-29T05:24:32.582Z,60.83
2022-11-29T05:27:07.447Z,58.58
2022-11-29T05:29:41.865Z,59.13
2022-11-29T05:32:29.766Z,57.58
2022-11-29T05:35:21.915Z,54.22
2022-11-29T05:37:52.933Z,59.78
2022-11-29T05:40:46.371Z,59.60
2022-11-29T05:43:26.488Z,59.22
2022-11-29T05:46:01.516Z,57.83
2022-11-29T05:48:36.939Z,46.88
2022-11-29T05:51:16.903Z,61.03
2022-11-29T05:53:49.149Z,61.53
2022-11-29T05:56:25.081Z,56.88
2022-11-29T05:58:58.226Z,58.15
2022-11-29T06:01:29.341Z,54.00
2022-11-29T06:04:09.137Z,63.08
2022-11-29T06:06:46.127Z,51.53
2022-11-29T06:09:20.075Z,65.90
2022-11-29T06:11:50.538Z,59.35
2022-11-29T06:14:34.067Z,54.72
2022-11-29T06:17:15.941Z,66.60
2022-11-29T06:19:55.380Z,65.88
2022-11-29T06:22:47.568Z,67.60
2022-11-29T06:25:26.549Z,61.85
2022-11-29T06:28:06.806Z,61.92
2022-11-29T06:30:42.891Z,60.20
2022-11-29T06:33:19.882Z,68.60
2022-11-29T06:35:53.820Z,62.20
2022-11-29T06:38:24.226Z,41.13
2022-11-29T06:40:58.623Z,57.08
2022-11-29T06:43:30.886Z,63.83
2022-11-29T06:46:03.050Z,51.63
2022-11-29T06:48:36.370Z,62.70
2022-11-29T06:51:09.792Z,61.78
2022-11-29T06:53:44.462Z,52.85
2022-11-29T06:56:20.722Z,57.92
2022-11-29T06:59:00.166Z,72.57
2022-11-29T07:01:37.245Z,75.90
2022-11-29T07:04:45.766Z,73.88
2022-11-29T07:07:21.520Z,65.85
2022-11-29T07:09:53.027Z,65.40
2022-11-29T07:12:22.557Z,68.05
2022-11-29T07:14:51.970Z,83.25
2022-11-29T07:17:25.986Z,75.80
2022-11-29T07:20:03.730Z,87.05
2022-11-29T07:22:47.110Z,75.50
2022-11-29T07:25:24.938Z,76.47
2022-11-29T07:27:59.149Z,79.53
2022-11-29T07:30:31.447Z,67.25
2022-11-29T07:33:06.602Z,69.50
2022-11-29T07:35:41.846Z,80.88
2022-11-29T07:38:18.082Z,70.45
2022-11-29T07:40:52.674Z,76.38
2022-11-29T07:43:31.414Z,63.97
2022-11-29T07:46:01.447Z,70.65
2022-11-29T07:48:30.141Z,52.47
2022-11-29T07:50:58.895Z,83.95
2022-11-29T07:53:29.251Z,80.35
2022-11-29T07:55:59.346Z,62.20
2022-11-29T07:58:28.059Z,69.30
2022-11-29T08:00:56.895Z,82.97
2022-11-29T08:03:25.658Z,71.57
2022-11-29T08:05:54.878Z,69.90
2022-11-29T08:08:23.584Z,72.10
2022-11-29T08:10:53.282Z,64.05
2022-11-29T08:13:22.491Z,67.85
2022-11-29T08:15:51.233Z,75.13
2022-11-29T08:18:19.940Z,54.40
2022-11-29T08:20:48.618Z,73.90
2022-11-29T08:23:17.341Z,67.00
2022-11-29T08:25:45.975Z,53.08
2022-11-29T08:28:16.203Z,35.92
2022-11-29T08:30:44.880Z,56.15
2022-11-29T08:33:13.619Z,55.25
2022-11-29T08:35:42.465Z,60.10
2022-11-29T08:38:11.121Z,51.90
2022-11-29T08:40:39.528Z,48.05
2022-11-29T08:43:08.344Z,59.28
2022-11-29T08:45:38.686Z,56.40
2022-11-29T08:48:08.181Z,53.47
2022-11-29T08:50:36.873Z,52.90
2022-11-29T08:53:22.957Z,48.53
2022-11-29T08:55:51.254Z,51.05
2022-11-29T08:58:21.521Z,55.65
2022-11-29T09:00:51.705Z,55.72
2022-11-29T09:03:37.880Z,58.05
2022-11-29T09:06:12.264Z,51.85
2022-11-29T09:08:43.718Z,50.63
2022-11-29T09:11:14.416Z,53.95
2022-11-29T09:16:15.510Z,55.47
2022-11-29T09:18:50.063Z,41.00
2022-11-29T09:21:20.537Z,56.88
2022-11-29T09:23:49.318Z,56.00
2022-11-29T09:26:19.969Z,41.92
2022-11-29T09:31:18.315Z,44.30
2022-11-29T09:36:15.795Z,34.60
2022-11-29T09:38:44.658Z,47.60
2022-11-29T09:41:26.332Z,42.28
2022-11-29T09:44:01.943Z,46.40
2022-11-29T09:46:40.004Z,48.85
2022-11-29T09:49:21.866Z,47.88
2022-11-29T09:51:56.361Z,48.00
2022-11-29T09:54:36.558Z,49.38
2022-11-29T09:57:10.524Z,41.53
2022-11-29T09:59:42.917Z,42.78
2022-11-29T10:02:21.418Z,39.38
2022-11-29T10:04:52.574Z,46.08
2022-11-29T10:07:23.590Z,44.60
2022-11-29T10:09:55.978Z,42.72
2022-11-29T10:12:30.625Z,36.00
2022-11-29T10:15:03.843Z,43.92
2022-11-29T10:17:37.758Z,35.97
2022-11-29T10:20:12.940Z,35.45
2022-11-29T10:22:45.565Z,38.40
2022-11-29T10:25:21.742Z,37.95
2022-11-29T10:27:50.796Z,36.60
2022-11-29T10:30:19.920Z,33.83
2022-11-29T10:32:52.607Z,37.60
2022-11-29T10:35:21.827Z,36.10
2022-11-29T10:38:14.675Z,33.25
2022-11-29T10:40:41.457Z,39.40
2022-11-29T10:43:10.280Z,33.47
2022-11-29T10:45:45.937Z,24.58
2022-11-29T10:48:17.863Z,33.53
2022-11-29T10:50:48.849Z,39.55
2022-11-29T10:53:19.806Z,38.75
2022-11-29T10:55:51.016Z,33.83
2022-11-29T10:58:27.912Z,30.58
2022-11-29T11:00:59.261Z,37.17
2022-11-29T11:03:36.222Z,39.97
2022-11-29T11:06:09.684Z,33.17
2022-11-29T11:08:39.775Z,23.58
2022-11-29T11:11:08.944Z,31.67
2022-11-29T11:13:39.344Z,35.55
2022-11-29T11:16:17.075Z,37.35
2022-11-29T11:18:48.440Z,29.77
2022-11-29T11:21:19.807Z,34.53
2022-11-29T11:23:55.311Z,38.20
2022-11-29T11:26:25.070Z,31.55
2022-11-29T11:28:57.904Z,32.73
2022-11-29T11:31:38.065Z,32.65
2022-11-29T11:34:34.352Z,32.65
2022-11-29T11:37:25.143Z,33.15
2022-11-29T11:39:55.962Z,35.20
2022-11-29T11:42:38.927Z,33.95
2022-11-29T11:45:31.641Z,36.42
2022-11-29T11:48:03.287Z,34.47
2022-11-29T11:50:35.504Z,33.95
2022-11-29T11:53:06.890Z,36.55
2022-11-29T11:55:37.918Z,30.73
2022-11-29T11:58:18.069Z,36.35
2022-11-29T12:01:05.532Z,32.95
2022-11-29T12:03:39.712Z,30.45
2022-11-29T12:06:25.498Z,34.38
2022-11-29T12:08:57.166Z,26.10
2022-11-29T12:11:26.675Z,33.40
2022-11-29T12:13:57.804Z,29.08
2022-11-29T12:16:30.810Z,33.80
2022-11-29T12:19:02.783Z,32.55
2022-11-29T12:21:37.872Z,31.30
2022-11-29T12:24:15.040Z,30.75
2022-11-29T12:26:59.720Z,32.28
2022-11-29T12:29:30.832Z,36.47
2022-11-29T12:32:06.623Z,24.20
2022-11-29T12:34:52.491Z,30.27
2022-11-29T12:37:27.005Z,33.88
2022-11-29T12:40:01.123Z,33.08
2022-11-29T12:42:44.339Z,29.67
2022-11-29T12:45:25.804Z,34.80
2022-11-29T12:48:02.420Z,36.15
2022-11-29T12:50:37.368Z,33.53
2022-11-29T12:53:27.050Z,32.75
2022-11-29T12:56:04.140Z,31.27
2022-11-29T12:58:41.282Z,32.97
2022-11-29T13:01:19.847Z,32.00
2022-11-29T13:03:54.957Z,33.55
2022-11-29T13:06:28.669Z,30.83
2022-11-29T13:09:26.567Z,30.98
2022-11-29T13:11:59.200Z,30.92
2022-11-29T13:14:42.639Z,33.63
2022-11-29T13:17:22.989Z,35.13
2022-11-29T13:19:54.235Z,28.38
2022-11-29T13:22:33.412Z,23.17
2022-11-29T13:25:05.882Z,20.75
2022-11-29T13:27:36.722Z,29.55
2022-11-29T13:30:06.581Z,35.08
2022-11-29T13:32:37.259Z,25.73
2022-11-29T13:35:12.964Z,26.40
2022-11-29T13:37:50.616Z,33.95
2022-11-29T13:40:29.805Z,28.90
2022-11-29T13:43:02.539Z,34.50
2022-11-29T13:45:36.409Z,30.02
2022-11-29T13:48:27.864Z,32.00
2022-11-29T13:50:57.316Z,32.97
2022-11-29T13:53:29.632Z,32.38
2022-11-29T13:56:01.877Z,33.22
2022-11-29T13:58:40.626Z,33.40
2022-11-29T14:01:10.206Z,31.83
2022-11-29T14:03:41.120Z,36.80
2022-11-29T14:06:12.603Z,38.97
2022-11-29T14:09:17.421Z,29.73
2022-11-29T14:11:37.932Z,34.15
2022-11-29T14:14:09.037Z,32.03
2022-11-29T14:16:40.699Z,31.83
2022-11-29T14:19:32.867Z,33.17
2022-11-29T14:22:26.208Z,32.28
2022-11-29T14:25:42.897Z,31.88
2022-11-29T14:28:05.386Z,29.63
2022-11-29T14:30:47.697Z,28.58
2022-11-29T14:33:28.261Z,32.58
2022-11-29T14:36:08.777Z,34.17
2022-11-29T14:38:43.208Z,36.42
2022-11-29T14:41:21.364Z,32.50
2022-11-29T14:43:51.223Z,35.72
2022-11-29T14:46:29.403Z,40.08
2022-11-29T14:49:01.131Z,37.42
2022-11-29T14:51:32.092Z,32.65
2022-11-29T14:54:07.676Z,33.85
2022-11-29T14:56:39.146Z,34.47
2022-11-29T14:59:42.661Z,34.17
2022-11-29T15:02:25.025Z,30.92
2022-11-29T15:04:56.286Z,29.60
2022-11-29T15:07:29.331Z,24.67
2022-11-29T15:10:01.053Z,35.08
2022-11-29T15:12:35.062Z,48.92
2022-11-29T15:15:12.568Z,33.42
2022-11-29T15:17:49.206Z,40.13
2022-11-29T15:20:42.502Z,33.60
2022-11-29T15:23:13.044Z,33.88
2022-11-29T15:25:48.665Z,36.22
2022-11-29T15:28:22.899Z,36.28
2022-11-29T15:31:02.898Z,33.63
2022-11-29T15:33:31.697Z,33.15
2022-11-29T15:36:06.668Z,31.90
2022-11-29T15:38:43.272Z,36.63
2022-11-29T15:41:21.049Z,30.95
2022-11-29T15:43:53.363Z,25.85
2022-11-29T15:46:26.928Z,32.00
2022-11-29T15:48:55.821Z,32.10
2022-11-29T15:51:29.787Z,34.15
2022-11-29T15:54:12.127Z,36.42
2022-11-29T15:56:45.714Z,37.63
2022-11-29T15:59:18.318Z,30.42
2022-11-29T16:01:51.479Z,34.60
2022-11-29T16:04:21.823Z,38.58
2022-11-29T16:06:51.857Z,32.90
2022-11-29T16:09:22.676Z,34.03
2022-11-29T16:11:51.573Z,32.17
2022-11-29T16:14:23.400Z,34.55
2022-11-29T16:16:55.610Z,37.60
2022-11-29T16:19:32.090Z,36.78
2022-11-29T16:22:22.432Z,40.20
2022-11-29T16:27:24.531Z,40.75
2022-11-29T16:29:55.141Z,20.33
2022-11-29T16:32:28.641Z,40.20
2022-11-29T16:34:57.911Z,34.97
2022-11-29T16:37:28.165Z,39.70
2022-11-29T16:40:00.013Z,38.65
2022-11-29T16:42:30.161Z,38.50
2022-11-29T16:45:24.317Z,34.72
2022-11-29T16:47:58.951Z,33.35
2022-11-29T16:50:29.042Z,35.63
2022-11-29T16:52:59.234Z,31.83
2022-11-29T16:55:27.914Z,38.35
2022-11-29T16:57:56.671Z,39.78
2022-11-29T17:00:31.532Z,36.38
2022-11-29T17:03:01.624Z,32.40
2022-11-29T17:05:30.386Z,38.05
2022-11-29T17:07:59.067Z,40.70
2022-11-29T17:10:28.981Z,36.03
2022-11-29T17:12:57.639Z,39.22
2022-11-29T17:15:26.238Z,38.92
2022-11-29T17:17:54.913Z,36.78
2022-11-29T17:20:25.005Z,39.20
2022-11-29T17:22:53.364Z,42.10
2022-11-29T17:25:22.006Z,41.65
2022-11-29T17:27:50.740Z,47.60
2022-11-29T17:30:19.760Z,37.25
2022-11-29T17:32:48.514Z,47.33
2022-11-29T17:35:17.266Z,41.67
2022-11-29T17:37:46.955Z,38.65
2022-11-29T17:40:16.171Z,32.63
2022-11-29T17:42:44.917Z,41.13
2022-11-29T17:45:13.515Z,40.17
2022-11-29T17:47:42.346Z,29.52
2022-11-29T17:50:12.193Z,43.20
2022-11-29T17:52:40.660Z,35.75
2022-11-29T17:55:11.456Z,38.80
2022-11-29T17:57:40.125Z,35.72
2022-11-29T18:00:12.963Z,28.38
2022-11-29T18:02:41.748Z,36.78
2022-11-29T18:05:10.881Z,44.90
2022-11-29T18:07:58.053Z,38.17
2022-11-29T18:10:29.411Z,39.88
2022-11-29T18:12:58.239Z,41.88
2022-11-29T18:15:26.929Z,39.15
2022-11-29T18:17:55.617Z,38.35
2022-11-29T18:20:24.318Z,31.63
2022-11-29T18:22:53.419Z,38.15
2022-11-29T18:25:39.564Z,33.77
2022-11-29T18:28:11.470Z,30.63
2022-11-29T18:30:40.177Z,33.63
2022-11-29T18:33:08.907Z,39.20
2022-11-29T18:35:37.530Z,41.60
2022-11-29T18:38:15.266Z,37.08
2022-11-29T18:40:45.785Z,31.90
2022-11-29T18:43:17.176Z,34.30
2022-11-29T18:45:45.899Z,39.13
2022-11-29T18:48:14.645Z,38.08
2022-11-29T18:50:43.335Z,35.42
2022-11-29T18:53:12.181Z,32.33
2022-11-29T18:55:40.562Z,32.83
2022-11-29T18:58:09.211Z,34.95
2022-11-29T19:00:39.313Z,33.28
2022-11-29T19:03:08.094Z,34.35
2022-11-29T19:05:36.787Z,35.50
2022-11-29T19:08:05.723Z,33.88
2022-11-29T19:10:34.056Z,36.20
2022-11-29T19:13:02.942Z,35.42
2022-11-29T19:15:31.729Z,38.00
2022-11-29T19:18:01.857Z,44.25
2022-11-29T19:20:34.123Z,40.25
2022-11-29T19:23:03.069Z,34.67
2022-11-29T19:25:31.311Z,35.35
2022-11-29T19:28:00.186Z,31.58
2022-11-29T19:30:28.919Z,38.17
2022-11-29T19:32:57.545Z,38.45
2022-11-29T19:35:27.607Z,31.60
2022-11-29T19:37:55.953Z,34.92
2022-11-29T19:40:24.578Z,36.33
2022-11-29T19:42:53.279Z,36.45
2022-11-29T19:45:22.654Z,34.60
2022-11-29T19:47:51.371Z,33.92
2022-11-29T19:50:20.127Z,33.58
2022-11-29T19:52:50.108Z,37.58
2022-11-29T19:55:18.953Z,38.08
2022-11-29T19:57:47.621Z,33.78
2022-11-29T20:00:17.390Z,34.50
2022-11-29T20:02:46.210Z,31.90
2022-11-29T20:05:15.447Z,44.38
2022-11-29T20:07:43.931Z,36.30
2022-11-29T20:10:14.238Z,31.67
2022-11-29T20:15:11.977Z,35.35
2022-11-29T20:17:41.041Z,33.13
2022-11-29T20:20:11.296Z,34.92
2022-11-29T20:22:39.677Z,36.60
2022-11-29T20:25:08.853Z,34.63
2022-11-29T20:27:38.816Z,30.30
2022-11-29T20:30:10.494Z,35.83
2022-11-29T20:32:39.543Z,31.42
2022-11-29T20:35:10.178Z,29.17
2022-11-29T20:37:54.454Z,30.45
2022-11-29T20:40:26.198Z,31.80
2022-11-29T20:43:04.932Z,32.15
2022-11-29T20:45:34.312Z,31.65
2022-11-29T20:48:09.422Z,35.40
2022-11-29T20:50:38.677Z,36.65
2022-11-29T20:53:16.891Z,32.63
2022-11-29T20:55:48.239Z,35.60
2022-11-29T20:58:19.728Z,29.58
2022-11-29T21:00:48.927Z,36.03
2022-11-29T21:03:18.232Z,35.95
2022-11-29T21:05:47.415Z,40.07
2022-11-29T21:08:17.604Z,35.08
2022-11-29T21:10:46.777Z,40.05
2022-11-29T21:13:16.400Z,39.83
2022-11-29T21:15:47.418Z,27.23
2022-11-29T21:18:23.044Z,35.25
2022-11-29T21:21:03.349Z,34.95
2022-11-29T21:26:07.622Z,24.20
2022-11-29T21:28:40.140Z,33.25
2022-11-29T21:31:13.376Z,31.42
2022-11-29T21:33:42.983Z,29.88
2022-11-29T21:36:11.972Z,28.17
2022-11-29T21:38:41.302Z,30.80
2022-11-29T21:41:09.928Z,32.58
2022-11-29T21:44:09.022Z,29.30
2022-11-29T21:46:30.634Z,37.40
2022-11-29T21:48:59.314Z,39.80
2022-11-29T21:51:27.982Z,36.95
2022-11-29T21:53:56.587Z,32.90
2022-11-29T21:56:25.217Z,31.00
2022-11-29T21:58:53.591Z,39.85
2022-11-29T22:01:22.606Z,31.98
2022-11-29T22:03:53.518Z,37.45
2022-11-29T22:06:24.386Z,33.95
2022-11-29T22:08:53.485Z,22.30
2022-11-29T22:11:31.856Z,31.67
2022-11-29T22:14:16.362Z,30.55
2022-11-29T22:16:49.559Z,33.22
2022-11-29T22:19:21.054Z,31.60
2022-11-29T22:21:50.824Z,32.42
2022-11-29T22:24:21.232Z,32.67
2022-11-29T22:26:50.424Z,36.42
2022-11-29T22:29:19.200Z,35.97
2022-11-29T22:31:49.586Z,31.13
2022-11-29T22:34:20.070Z,38.17
2022-11-29T22:36:48.721Z,32.75
2022-11-29T22:39:17.398Z,35.58
2022-11-29T22:41:52.305Z,34.85
2022-11-29T22:44:22.843Z,40.10
2022-11-29T22:46:51.343Z,40.28
2022-11-29T22:49:21.494Z,37.13
2022-11-29T22:51:50.090Z,37.25
2022-11-29T22:54:18.918Z,29.38
2022-11-29T22:56:48.263Z,38.50
2022-11-29T22:59:17.072Z,43.03
2022-11-29T23:01:45.799Z,38.38
2022-11-29T23:04:14.963Z,31.17
2022-11-29T23:06:46.195Z,42.63
2022-11-29T23:09:16.841Z,42.58
2022-11-29T23:11:46.275Z,35.50
2022-11-29T23:14:15.220Z,35.55
2022-11-29T23:16:43.507Z,34.92
2022-11-29T23:19:12.329Z,36.78
2022-11-29T23:21:41.963Z,39.08
2022-11-29T23:24:12.288Z,35.65
2022-11-29T23:26:42.233Z,36.10
2022-11-29T23:29:12.458Z,36.78
2022-11-29T23:31:40.800Z,35.00
2022-11-29T23:34:09.582Z,37.85
2022-11-29T23:36:38.277Z,35.80
2022-11-29T23:39:07.613Z,34.85
2022-11-29T23:41:37.951Z,35.80
2022-11-29T23:46:36.839Z,33.00
2022-11-29T23:49:05.487Z,32.97
2022-11-29T23:51:34.129Z,34.17
2022-11-29T23:54:02.794Z,31.20
2022-11-29T23:56:35.625Z,36.85
2022-11-29T23:59:06.001Z,33.00
